createdAt,value
2024-05-09T00:05:17.046Z,79.94
2024-05-09T00:10:58.257Z,79.19
2024-05-09T00:16:38.855Z,79.58
2024-05-09T00:22:18.567Z,80.46
2024-05-09T00:27:59.905Z,79.62
2024-05-09T00:33:40.610Z,80.64
2024-05-09T00:39:20.628Z,80.71
2024-05-09T00:45:00.640Z,80.03
2024-05-09T00:50:42.594Z,74.34
2024-05-09T00:56:23.306Z,77.99
2024-05-09T01:02:03.851Z,73.80
2024-05-09T01:07:44.191Z,74.72
2024-05-09T01:13:24.259Z,73.78
2024-05-09T01:19:08.823Z,74.52
2024-05-09T01:24:49.229Z,71.44
2024-05-09T01:30:35.411Z,71.85
2024-05-09T01:36:13.090Z,72.71
2024-05-09T01:41:53.349Z,72.99
2024-05-09T01:47:33.389Z,73.55
2024-05-09T01:53:15.162Z,74.20
2024-05-09T01:58:55.184Z,74.56
2024-05-09T02:04:35.749Z,75.35
2024-05-09T02:10:20.495Z,76.41
2024-05-09T02:15:58.243Z,77.43
2024-05-09T02:21:38.414Z,76.94
2024-05-09T02:27:18.766Z,79.33
2024-05-09T02:32:59.434Z,79.72
2024-05-09T02:38:39.874Z,79.35
2024-05-09T02:44:20.816Z,82.58
2024-05-09T02:50:04.613Z,80.97
2024-05-09T02:55:45.995Z,81.96
2024-05-09T03:05:23.070Z,83.87
2024-05-09T03:11:03.497Z,83.42
2024-05-09T03:16:43.624Z,82.78
2024-05-09T03:22:23.929Z,79.14
2024-05-09T03:28:04.083Z,79.35
2024-05-09T03:33:44.017Z,76.76
2024-05-09T03:39:24.199Z,77.75
2024-05-09T03:45:07.558Z,74.96
2024-05-09T03:50:47.924Z,72.07
2024-05-09T03:56:28.939Z,69.02
2024-05-09T04:02:08.826Z,69.47
2024-05-09T04:07:49.139Z,71.12
2024-05-09T04:13:29.437Z,67.60
2024-05-09T04:19:09.508Z,66.37
2024-05-09T04:24:50.185Z,63.67
2024-05-09T04:30:37.640Z,62.08
2024-05-09T04:36:13.255Z,58.25
2024-05-09T04:41:53.557Z,59.63
2024-05-09T04:47:33.386Z,55.42
2024-05-09T04:53:17.391Z,55.22
2024-05-09T04:58:57.422Z,51.00
2024-05-09T05:05:40.734Z,49.20
2024-05-09T05:11:21.213Z,48.16
2024-05-09T05:17:01.206Z,49.14
2024-05-09T05:22:42.935Z,48.99
2024-05-09T05:28:23.606Z,48.26
2024-05-09T05:34:04.266Z,46.61
2024-05-09T05:39:44.520Z,44.75
2024-05-09T05:45:26.579Z,44.21
2024-05-09T05:51:07.221Z,44.36
2024-05-09T05:56:47.448Z,43.18
2024-05-09T06:02:27.861Z,42.77
2024-05-09T06:08:08.555Z,42.08
2024-05-09T06:13:48.840Z,42.65
2024-05-09T06:19:29.310Z,41.56
2024-05-09T06:25:09.726Z,41.88
2024-05-09T06:30:49.824Z,39.84
2024-05-09T06:36:29.984Z,37.77
2024-05-09T06:42:10.299Z,38.09
2024-05-09T06:47:50.520Z,37.56
2024-05-09T06:53:30.457Z,37.10
2024-05-09T06:59:10.675Z,36.67
2024-05-09T07:04:50.765Z,36.76
2024-05-09T07:10:34.882Z,35.85
2024-05-09T07:16:12.205Z,36.20
2024-05-09T07:21:52.954Z,37.40
2024-05-09T07:27:34.475Z,35.14
2024-05-09T07:33:19.359Z,34.63
2024-05-09T07:39:00.154Z,35.46
2024-05-09T07:44:40.498Z,34.54
2024-05-09T07:56:02.186Z,33.28
2024-05-09T08:01:42.988Z,34.11
2024-05-09T08:07:23.428Z,34.67
2024-05-09T08:13:05.813Z,34.65
2024-05-09T08:18:46.445Z,33.45
2024-05-09T08:24:26.565Z,34.91
2024-05-09T08:30:10.212Z,35.46
2024-05-09T08:35:49.504Z,35.22
2024-05-09T08:41:31.972Z,32.92
2024-05-09T08:47:12.435Z,30.45
2024-05-09T08:52:52.374Z,32.11
2024-05-09T08:58:34.575Z,31.90
2024-05-09T09:05:40.046Z,32.00
2024-05-09T09:11:20.154Z,29.44
2024-05-09T09:17:00.736Z,29.63
2024-05-09T09:22:41.107Z,31.14
2024-05-09T09:28:22.540Z,29.66
2024-05-09T09:34:06.861Z,29.99
2024-05-09T09:39:49.155Z,27.50
2024-05-09T09:45:31.360Z,27.04
2024-05-09T09:51:11.146Z,29.24
2024-05-09T09:56:51.794Z,29.35
2024-05-09T10:02:32.182Z,26.34
2024-05-09T10:08:13.311Z,25.10
2024-05-09T10:13:54.283Z,27.86
2024-05-09T10:19:34.671Z,25.77
2024-05-09T10:25:15.740Z,24.27
2024-05-09T10:31:12.795Z,27.17
2024-05-09T10:36:55.388Z,26.81
2024-05-09T10:42:38.599Z,24.01
2024-05-09T10:48:20.892Z,27.45
2024-05-09T10:54:01.116Z,27.70
2024-05-09T10:59:45.035Z,25.38
2024-05-09T11:05:26.337Z,26.44
2024-05-09T11:11:07.452Z,24.16
2024-05-09T11:16:59.795Z,26.68
2024-05-09T11:22:40.116Z,26.85
2024-05-09T11:28:21.914Z,26.12
2024-05-09T11:34:01.813Z,26.00
2024-05-09T11:39:42.133Z,26.90
2024-05-09T11:45:22.204Z,26.16
2024-05-09T11:51:02.347Z,25.09
2024-05-09T11:56:43.288Z,24.38
2024-05-09T12:05:38.908Z,23.97
2024-05-09T12:11:19.351Z,23.43
2024-05-09T12:17:00.597Z,25.41
2024-05-09T12:22:40.765Z,24.86
2024-05-09T12:28:21.513Z,22.88
2024-05-09T12:34:01.779Z,23.20
2024-05-09T12:39:41.721Z,24.68
2024-05-09T12:45:22.072Z,22.66
2024-05-09T12:51:02.083Z,22.85
2024-05-09T12:56:42.197Z,24.19
2024-05-09T13:02:23.176Z,22.92
2024-05-09T13:08:04.123Z,23.18
2024-05-09T13:13:44.785Z,24.16
2024-05-09T13:19:24.950Z,24.54
2024-05-09T13:25:05.414Z,23.34
2024-05-09T13:30:45.194Z,23.14
2024-05-09T13:36:25.515Z,23.47
2024-05-09T13:42:06.494Z,22.78
2024-05-09T13:47:46.310Z,23.94
2024-05-09T13:53:26.417Z,24.64
2024-05-09T13:59:07.373Z,23.21
2024-05-09T14:04:47.420Z,23.35
2024-05-09T14:10:31.165Z,23.50
2024-05-09T14:16:09.947Z,21.95
2024-05-09T14:21:50.381Z,22.72
2024-05-09T14:27:31.632Z,23.23
2024-05-09T14:33:11.780Z,22.92
2024-05-09T14:38:52.388Z,23.84
2024-05-09T14:44:32.780Z,23.21
2024-05-09T14:50:19.603Z,24.05
2024-05-09T14:55:55.005Z,23.94
2024-05-09T15:05:26.827Z,23.29
2024-05-09T15:11:07.006Z,23.03
2024-05-09T15:16:48.091Z,22.25
2024-05-09T15:22:28.640Z,21.68
2024-05-09T15:28:08.966Z,22.63
2024-05-09T15:33:49.731Z,22.23
2024-05-09T15:39:30.072Z,23.66
2024-05-09T15:45:10.274Z,25.57
2024-05-09T15:50:50.714Z,25.57
2024-05-09T15:56:31.886Z,26.56
2024-05-09T16:02:12.516Z,25.62
2024-05-09T16:07:53.255Z,26.28
2024-05-09T16:13:33.274Z,26.87
2024-05-09T16:19:13.645Z,27.14
2024-05-09T16:24:54.457Z,25.87
2024-05-09T16:30:36.045Z,26.32
2024-05-09T16:36:17.066Z,25.85
2024-05-09T16:41:56.748Z,27.51
2024-05-09T16:47:36.959Z,28.16
2024-05-09T16:53:18.463Z,28.81
2024-05-09T16:58:58.882Z,29.87
2024-05-09T17:04:39.514Z,30.32
2024-05-09T17:10:26.940Z,30.95
2024-05-09T17:16:01.422Z,31.99
2024-05-09T17:21:41.356Z,32.58
2024-05-09T17:27:21.908Z,34.32
2024-05-09T17:33:02.701Z,36.38
2024-05-09T17:38:42.534Z,37.76
2024-05-09T17:44:22.401Z,39.86
2024-05-09T17:50:09.561Z,40.56
2024-05-09T17:55:48.103Z,39.78
2024-05-09T18:05:23.852Z,41.76
2024-05-09T18:11:04.240Z,41.36
2024-05-09T18:16:44.801Z,42.64
2024-05-09T18:22:25.180Z,43.60
2024-05-09T18:28:06.887Z,44.54
2024-05-09T18:33:47.002Z,45.27
2024-05-09T18:39:27.453Z,44.78
2024-05-09T18:45:07.903Z,45.38
2024-05-09T18:50:48.971Z,45.38
2024-05-09T18:56:29.058Z,45.41
2024-05-09T19:02:09.282Z,47.04
2024-05-09T19:07:49.448Z,46.15
2024-05-09T19:13:30.140Z,46.88
2024-05-09T19:19:10.898Z,48.30
2024-05-09T19:24:51.403Z,49.08
2024-05-09T19:30:38.636Z,48.02
2024-05-09T19:36:13.503Z,49.60
2024-05-09T19:41:53.169Z,51.84
2024-05-09T19:47:33.791Z,51.72
2024-05-09T19:53:14.209Z,51.95
2024-05-09T19:58:55.278Z,53.57
2024-05-09T20:04:35.621Z,56.02
2024-05-09T20:10:23.342Z,57.05
2024-05-09T20:15:58.184Z,59.01
2024-05-09T20:21:42.749Z,61.09
2024-05-09T20:27:23.206Z,60.07
2024-05-09T20:33:06.327Z,59.50
2024-05-09T20:38:46.693Z,62.62
2024-05-09T20:44:27.543Z,59.86
2024-05-09T20:50:19.682Z,61.44
2024-05-09T20:55:51.510Z,58.39
2024-05-09T21:05:56.859Z,59.32
2024-05-09T21:11:36.956Z,60.80
2024-05-09T21:17:16.888Z,62.51
2024-05-09T21:22:59.705Z,62.28
2024-05-09T21:28:39.845Z,63.99
2024-05-09T21:34:20.155Z,63.98
2024-05-09T21:40:00.686Z,63.70
2024-05-09T21:45:41.095Z,66.53
2024-05-09T21:51:21.425Z,67.08
2024-05-09T21:57:01.948Z,68.97
2024-05-09T22:02:41.982Z,67.38
2024-05-09T22:08:21.617Z,69.80
2024-05-09T22:14:01.900Z,69.09
2024-05-09T22:19:48.678Z,69.33
2024-05-09T22:25:31.080Z,69.71
2024-05-09T22:31:11.658Z,70.87
2024-05-09T22:36:51.895Z,72.95
2024-05-09T22:42:32.290Z,74.52
2024-05-09T22:48:12.392Z,74.65
2024-05-09T22:53:52.644Z,72.96
2024-05-09T22:59:33.476Z,75.38
2024-05-09T23:05:13.834Z,76.77
2024-05-09T23:10:53.986Z,74.59
2024-05-09T23:16:34.042Z,74.91
2024-05-09T23:22:14.065Z,77.13
2024-05-09T23:27:53.867Z,77.47
2024-05-09T23:33:34.869Z,78.73
2024-05-09T23:39:15.248Z,79.51
2024-05-09T23:44:57.491Z,78.12
2024-05-09T23:50:39.221Z,80.77
2024-05-09T23:56:21.168Z,81.18
